createdAt,value
2022-12-02T00:00:00.835Z,11.20
2022-12-02T00:02:33.764Z,11.27
2022-12-02T00:05:11.807Z,12.02
2022-12-02T00:07:39.170Z,10.85
2022-12-02T00:10:26.045Z,12.75
2022-12-02T00:12:53.595Z,12.80
2022-12-02T00:15:42.074Z,11.07
2022-12-02T00:18:14.996Z,12.65
2022-12-02T00:20:43.648Z,12.55
2022-12-02T00:23:11.337Z,12.45
2022-12-02T00:25:38.682Z,11.77
2022-12-02T00:28:06.105Z,12.25
2022-12-02T00:30:33.578Z,12.25
2022-12-02T00:33:01.157Z,12.52
2022-12-02T00:35:28.605Z,12.15
2022-12-02T00:37:55.999Z,12.10
2022-12-02T00:40:23.526Z,11.88
2022-12-02T00:42:51.946Z,12.25
2022-12-02T00:45:37.872Z,12.50
2022-12-02T00:48:05.461Z,11.18
2022-12-02T00:50:32.853Z,12.80
2022-12-02T00:53:00.175Z,12.27
2022-12-02T00:55:27.493Z,12.02
2022-12-02T00:57:54.780Z,11.95
2022-12-02T01:00:22.143Z,12.52
2022-12-02T01:02:49.674Z,11.70
2022-12-02T01:05:16.649Z,12.95
2022-12-02T01:07:44.187Z,12.30
2022-12-02T01:10:11.288Z,13.18
2022-12-02T01:12:38.605Z,12.32
2022-12-02T01:15:06.400Z,11.15
2022-12-02T01:17:33.816Z,12.60
2022-12-02T01:20:01.125Z,11.20
2022-12-02T01:22:28.442Z,12.52
2022-12-02T01:24:55.809Z,12.25
2022-12-02T01:27:23.960Z,11.68
2022-12-02T01:29:51.282Z,12.18
2022-12-02T01:32:19.671Z,12.40
2022-12-02T01:34:47.032Z,12.48
2022-12-02T01:37:14.325Z,13.50
2022-12-02T01:39:41.666Z,11.93
2022-12-02T01:42:10.259Z,13.55
2022-12-02T01:44:37.879Z,12.57
2022-12-02T01:47:05.981Z,12.93
2022-12-02T01:49:33.358Z,13.27
2022-12-02T01:52:00.686Z,13.63
2022-12-02T01:54:28.155Z,13.68
2022-12-02T01:56:55.455Z,12.88
2022-12-02T01:59:23.733Z,11.85
2022-12-02T02:01:51.035Z,12.25
2022-12-02T02:04:18.528Z,10.18
2022-12-02T02:06:47.741Z,11.65
2022-12-02T02:09:15.144Z,12.25
2022-12-02T02:11:42.854Z,11.93
2022-12-02T02:14:12.835Z,12.15
2022-12-02T02:16:40.667Z,11.73
2022-12-02T02:19:13.255Z,12.30
2022-12-02T02:21:46.125Z,12.10
2022-12-02T02:24:13.933Z,13.35
2022-12-02T02:26:41.411Z,12.95
2022-12-02T02:29:08.798Z,11.73
2022-12-02T02:31:38.292Z,12.65
2022-12-02T02:34:05.966Z,12.25
2022-12-02T02:36:33.743Z,11.43
2022-12-02T02:39:02.340Z,13.20
2022-12-02T02:41:29.704Z,13.10
2022-12-02T02:43:59.402Z,13.02
2022-12-02T02:46:27.498Z,10.85
2022-12-02T02:49:01.607Z,13.27
2022-12-02T02:51:32.859Z,12.30
2022-12-02T02:54:00.231Z,13.40
2022-12-02T02:56:29.579Z,12.75
2022-12-02T02:58:56.968Z,13.82
2022-12-02T03:01:33.417Z,12.10
2022-12-02T03:04:09.963Z,12.05
2022-12-02T03:06:39.835Z,11.90
2022-12-02T03:09:11.535Z,12.60
2022-12-02T03:11:40.309Z,12.10
2022-12-02T03:14:14.235Z,12.48
2022-12-02T03:16:44.147Z,11.57
2022-12-02T03:19:12.041Z,13.25
2022-12-02T03:21:39.712Z,13.65
2022-12-02T03:24:07.473Z,12.18
2022-12-02T03:26:35.135Z,12.68
2022-12-02T03:29:08.655Z,13.77
2022-12-02T03:31:36.372Z,13.05
2022-12-02T03:34:03.676Z,12.45
2022-12-02T03:36:31.393Z,12.27
2022-12-02T03:38:58.970Z,13.02
2022-12-02T03:41:26.701Z,13.95
2022-12-02T03:43:58.365Z,12.85
2022-12-02T03:46:26.684Z,12.52
2022-12-02T03:48:55.314Z,12.02
2022-12-02T03:51:22.615Z,11.95
2022-12-02T03:53:49.925Z,14.57
2022-12-02T03:56:17.299Z,13.38
2022-12-02T03:58:51.229Z,13.43
2022-12-02T04:01:19.910Z,12.25
2022-12-02T04:03:47.400Z,12.55
2022-12-02T04:06:15.064Z,13.13
2022-12-02T04:08:42.425Z,12.45
2022-12-02T04:11:09.764Z,12.10
2022-12-02T04:13:37.089Z,12.73
2022-12-02T04:16:04.631Z,10.57
2022-12-02T04:18:31.630Z,11.63
2022-12-02T04:20:58.542Z,12.07
2022-12-02T04:23:25.492Z,13.25
2022-12-02T04:25:52.774Z,13.77
2022-12-02T04:28:20.130Z,12.82
2022-12-02T04:30:47.491Z,12.38
2022-12-02T04:33:14.893Z,13.20
2022-12-02T04:35:42.210Z,13.07
2022-12-02T04:38:12.230Z,12.85
2022-12-02T04:40:40.645Z,12.70
2022-12-02T04:43:08.085Z,14.18
2022-12-02T04:45:35.415Z,13.88
2022-12-02T04:48:02.705Z,11.65
2022-12-02T04:50:30.006Z,12.45
2022-12-02T04:52:57.309Z,12.32
2022-12-02T04:55:24.590Z,13.05
2022-12-02T04:57:51.885Z,12.65
2022-12-02T05:00:19.197Z,13.40
2022-12-02T05:02:46.551Z,12.43
2022-12-02T05:05:13.902Z,12.55
2022-12-02T05:07:41.327Z,13.82
2022-12-02T05:10:09.284Z,12.88
2022-12-02T05:12:36.561Z,14.65
2022-12-02T05:15:04.036Z,13.00
2022-12-02T05:17:31.493Z,14.15
2022-12-02T05:19:59.576Z,14.48
2022-12-02T05:22:26.913Z,12.48
2022-12-02T05:24:54.201Z,11.73
2022-12-02T05:27:21.748Z,12.07
2022-12-02T05:29:48.682Z,14.25
2022-12-02T05:32:15.592Z,13.65
2022-12-02T05:34:42.525Z,13.52
2022-12-02T05:37:09.844Z,13.85
2022-12-02T05:39:36.748Z,12.43
2022-12-02T05:42:11.377Z,12.88
2022-12-02T05:44:40.526Z,14.00
2022-12-02T05:47:13.127Z,13.43
2022-12-02T05:49:41.745Z,13.40
2022-12-02T05:52:27.719Z,12.75
2022-12-02T05:54:59.004Z,12.18
2022-12-02T05:57:30.560Z,14.57
2022-12-02T06:00:09.607Z,13.10
2022-12-02T06:02:58.433Z,14.18
2022-12-02T06:05:34.456Z,14.25
2022-12-02T06:08:20.207Z,13.77
2022-12-02T06:10:51.216Z,13.63
2022-12-02T06:13:26.971Z,13.80
2022-12-02T06:15:55.104Z,13.65
2022-12-02T06:18:28.550Z,14.25
2022-12-02T06:21:05.503Z,14.05
2022-12-02T06:23:33.437Z,12.38
2022-12-02T06:26:00.713Z,13.40
2022-12-02T06:28:39.097Z,12.98
2022-12-02T06:31:17.968Z,11.57
2022-12-02T06:33:48.522Z,13.73
2022-12-02T06:36:24.155Z,12.68
2022-12-02T06:38:57.709Z,11.23
2022-12-02T06:41:33.391Z,12.23
2022-12-02T06:44:27.739Z,13.02
2022-12-02T06:46:55.082Z,13.35
2022-12-02T06:49:25.907Z,13.35
2022-12-02T06:52:19.424Z,12.40
2022-12-02T06:54:47.007Z,12.43
2022-12-02T06:57:19.160Z,13.48
2022-12-02T06:59:51.668Z,11.65
2022-12-02T07:02:32.227Z,12.50
2022-12-02T07:04:59.983Z,13.57
2022-12-02T07:07:32.577Z,14.50
2022-12-02T07:10:04.225Z,13.32
2022-12-02T07:12:42.306Z,15.18
2022-12-02T07:15:32.610Z,13.38
2022-12-02T07:18:19.719Z,12.30
2022-12-02T07:20:48.949Z,12.85
2022-12-02T07:23:24.374Z,14.63
2022-12-02T07:25:56.875Z,12.77
2022-12-02T07:28:35.466Z,10.95
2022-12-02T07:31:06.828Z,11.40
2022-12-02T07:33:33.787Z,12.40
2022-12-02T07:36:00.654Z,12.43
2022-12-02T07:39:04.248Z,10.85
2022-12-02T07:41:20.389Z,11.47
2022-12-02T07:43:47.687Z,12.95
2022-12-02T07:46:15.063Z,12.00
2022-12-02T07:48:42.407Z,13.95
2022-12-02T07:51:09.759Z,14.05
2022-12-02T07:53:37.084Z,12.73
2022-12-02T07:56:04.763Z,11.88
2022-12-02T07:59:02.982Z,11.77
2022-12-02T08:01:20.156Z,11.85
2022-12-02T08:03:47.344Z,11.00
2022-12-02T08:06:15.320Z,9.02
2022-12-02T08:08:42.637Z,9.30
2022-12-02T08:11:10.146Z,9.60
2022-12-02T08:13:37.414Z,9.27
2022-12-02T08:16:04.938Z,10.18
2022-12-02T08:18:32.256Z,10.10
2022-12-02T08:21:00.798Z,9.77
2022-12-02T08:23:29.560Z,10.45
2022-12-02T08:25:56.462Z,10.18
2022-12-02T08:28:23.763Z,9.30
2022-12-02T08:30:51.150Z,9.95
2022-12-02T08:33:18.455Z,9.75
2022-12-02T08:35:45.780Z,8.90
2022-12-02T08:38:12.670Z,8.93
2022-12-02T08:40:39.937Z,8.30
2022-12-02T08:43:07.243Z,8.50
2022-12-02T08:45:34.580Z,9.13
2022-12-02T08:48:01.876Z,8.35
2022-12-02T08:50:29.190Z,9.23
2022-12-02T08:52:58.607Z,7.43
2022-12-02T08:55:26.942Z,8.50
2022-12-02T08:57:53.887Z,7.68
2022-12-02T09:00:21.291Z,8.38
2022-12-02T09:02:48.384Z,7.93
2022-12-02T09:05:16.449Z,7.20
2022-12-02T09:07:43.798Z,6.70
2022-12-02T09:10:12.540Z,6.63
2022-12-02T09:12:39.885Z,6.60
2022-12-02T09:15:07.537Z,7.07
2022-12-02T09:17:34.505Z,6.35
2022-12-02T09:20:02.023Z,7.07
2022-12-02T09:22:29.452Z,7.35
2022-12-02T09:24:56.489Z,6.38
2022-12-02T09:27:23.758Z,6.47
2022-12-02T09:29:50.778Z,5.63
2022-12-02T09:32:17.656Z,5.28
2022-12-02T09:34:44.992Z,6.78
2022-12-02T09:37:12.055Z,6.32
2022-12-02T09:39:39.576Z,5.93
2022-12-02T09:42:08.617Z,6.60
2022-12-02T09:44:36.316Z,7.13
2022-12-02T09:47:03.871Z,7.28
2022-12-02T09:49:31.624Z,7.43
2022-12-02T09:52:02.600Z,7.25
2022-12-02T09:54:29.900Z,5.32
2022-12-02T09:56:57.821Z,5.78
2022-12-02T09:59:25.130Z,4.95
2022-12-02T10:01:52.509Z,4.80
2022-12-02T10:04:23.315Z,4.93
2022-12-02T10:06:50.764Z,5.22
2022-12-02T10:09:30.003Z,5.15
2022-12-02T10:11:57.395Z,6.05
2022-12-02T10:14:24.324Z,5.05
2022-12-02T10:16:53.389Z,4.78
2022-12-02T10:19:21.624Z,5.32
2022-12-02T10:21:52.313Z,5.30
2022-12-02T10:24:37.896Z,5.80
2022-12-02T10:27:05.493Z,5.13
2022-12-02T10:29:33.199Z,5.45
2022-12-02T10:32:22.984Z,4.80
2022-12-02T10:35:09.973Z,5.13
2022-12-02T10:37:38.236Z,5.03
2022-12-02T10:40:22.593Z,4.70
2022-12-02T10:43:10.996Z,5.40
2022-12-02T10:45:38.451Z,4.35
2022-12-02T10:48:16.889Z,4.78
2022-12-02T10:50:44.807Z,4.65
2022-12-02T10:53:18.499Z,5.03
2022-12-02T10:55:47.464Z,5.47
2022-12-02T10:58:25.029Z,5.75
2022-12-02T11:00:52.521Z,4.95
2022-12-02T11:03:20.402Z,5.85
2022-12-02T11:05:47.901Z,4.65
2022-12-02T11:08:26.470Z,6.30
2022-12-02T11:11:25.490Z,5.28
2022-12-02T11:13:54.333Z,5.25
2022-12-02T11:16:27.501Z,5.00
2022-12-02T11:19:09.226Z,5.60
2022-12-02T11:21:40.621Z,5.70
2022-12-02T11:24:28.655Z,5.60
2022-12-02T11:27:04.554Z,5.75
2022-12-02T11:30:03.802Z,6.53
2022-12-02T11:32:36.836Z,5.88
2022-12-02T11:35:20.780Z,6.05
2022-12-02T11:37:49.056Z,5.88
2022-12-02T11:40:22.690Z,5.78
2022-12-02T11:42:50.082Z,5.18
2022-12-02T11:45:17.369Z,5.38
2022-12-02T11:47:55.104Z,5.47
2022-12-02T11:50:40.506Z,5.57
2022-12-02T11:53:23.362Z,6.35
2022-12-02T11:55:53.281Z,5.28
2022-12-02T11:58:33.223Z,5.68
2022-12-02T12:01:20.806Z,5.63
2022-12-02T12:03:52.452Z,4.97
2022-12-02T12:06:25.862Z,4.57
2022-12-02T12:08:57.336Z,5.88
2022-12-02T12:11:32.330Z,5.32
2022-12-02T12:14:11.043Z,5.68
2022-12-02T12:16:44.204Z,5.90
2022-12-02T12:19:15.163Z,6.80
2022-12-02T12:21:52.363Z,5.78
2022-12-02T12:24:23.642Z,5.75
2022-12-02T12:26:50.923Z,5.22
2022-12-02T12:29:20.454Z,6.18
2022-12-02T12:31:47.712Z,6.70
2022-12-02T12:34:18.098Z,5.97
2022-12-02T12:36:46.120Z,5.10
2022-12-02T12:39:13.990Z,5.43
2022-12-02T12:44:31.519Z,5.45
2022-12-02T12:47:04.483Z,5.60
2022-12-02T12:49:33.470Z,6.30
2022-12-02T12:52:01.569Z,4.75
2022-12-02T12:54:29.124Z,6.72
2022-12-02T12:56:56.454Z,4.82
2022-12-02T12:59:23.745Z,5.88
2022-12-02T13:01:51.307Z,6.22
2022-12-02T13:04:18.663Z,5.50
2022-12-02T13:06:46.971Z,5.95
2022-12-02T13:09:15.074Z,5.40
2022-12-02T13:11:42.376Z,6.07
2022-12-02T13:14:10.076Z,6.03
2022-12-02T13:16:37.573Z,6.65
2022-12-02T13:19:06.162Z,6.55
2022-12-02T13:21:33.714Z,5.82
2022-12-02T13:24:03.150Z,5.93
2022-12-02T13:26:30.447Z,5.68
2022-12-02T13:28:57.535Z,5.82
2022-12-02T13:31:24.984Z,6.72
2022-12-02T13:33:52.398Z,5.60
2022-12-02T13:36:19.789Z,6.55
2022-12-02T13:38:47.160Z,6.00
2022-12-02T13:41:14.484Z,6.13
2022-12-02T13:43:41.456Z,7.22
2022-12-02T13:46:08.963Z,6.57
2022-12-02T13:48:36.047Z,6.65
2022-12-02T13:51:04.075Z,5.97
2022-12-02T13:53:31.084Z,6.15
2022-12-02T13:55:59.158Z,6.15
2022-12-02T13:58:26.529Z,6.20
2022-12-02T14:00:53.801Z,6.50
2022-12-02T14:03:20.883Z,6.50
2022-12-02T14:05:48.280Z,6.15
2022-12-02T14:08:15.736Z,5.95
2022-12-02T14:10:42.793Z,6.38
2022-12-02T14:13:15.845Z,6.05
2022-12-02T14:15:44.300Z,6.50
2022-12-02T14:18:12.374Z,5.82
2022-12-02T14:20:39.669Z,5.85
2022-12-02T14:23:08.416Z,5.88
2022-12-02T14:25:35.805Z,6.53
2022-12-02T14:28:03.238Z,7.68
2022-12-02T14:30:30.302Z,5.53
2022-12-02T14:32:57.591Z,7.15
2022-12-02T14:35:24.552Z,7.65
2022-12-02T14:37:51.811Z,5.90
2022-12-02T14:40:19.305Z,6.22
2022-12-02T14:42:46.629Z,7.80
2022-12-02T14:45:14.012Z,7.93
2022-12-02T14:47:41.359Z,6.80
2022-12-02T14:50:08.748Z,6.35
2022-12-02T14:52:36.111Z,7.63
2022-12-02T14:55:03.494Z,7.07
2022-12-02T14:57:30.557Z,6.00
2022-12-02T14:59:57.887Z,6.47
2022-12-02T15:02:25.282Z,7.32
2022-12-02T15:04:54.427Z,7.28
2022-12-02T15:07:23.532Z,7.50
2022-12-02T15:09:51.027Z,7.25
2022-12-02T15:12:18.624Z,7.60
2022-12-02T15:14:45.944Z,8.18
2022-12-02T15:17:13.573Z,8.95
2022-12-02T15:19:40.968Z,8.10
2022-12-02T15:22:08.923Z,8.27
2022-12-02T15:24:36.245Z,7.28
2022-12-02T15:27:03.651Z,8.45
2022-12-02T15:29:31.141Z,8.23
2022-12-02T15:31:58.633Z,7.97
2022-12-02T15:34:25.782Z,8.05
2022-12-02T15:36:52.662Z,7.70
2022-12-02T15:39:19.940Z,8.02
2022-12-02T15:41:46.838Z,8.05
2022-12-02T15:44:15.680Z,7.25
2022-12-02T15:46:43.197Z,7.00
2022-12-02T15:49:10.730Z,7.78
2022-12-02T15:51:38.295Z,7.65
2022-12-02T15:54:05.352Z,8.02
2022-12-02T15:56:35.633Z,6.65
2022-12-02T15:59:03.699Z,8.20
2022-12-02T16:01:31.445Z,7.40
2022-12-02T16:03:59.054Z,6.88
2022-12-02T16:06:26.527Z,8.00
2022-12-02T16:08:55.668Z,8.82
2022-12-02T16:11:23.472Z,8.48
2022-12-02T16:13:52.441Z,7.18
2022-12-02T16:16:20.123Z,7.70
2022-12-02T16:18:49.389Z,7.55
2022-12-02T16:21:17.614Z,7.97
2022-12-02T16:23:44.967Z,8.07
2022-12-02T16:26:12.780Z,8.05
2022-12-02T16:28:42.705Z,7.15
2022-12-02T16:31:10.379Z,7.07
2022-12-02T16:33:37.868Z,7.20
2022-12-02T16:36:05.378Z,7.30
2022-12-02T16:38:32.671Z,7.63
2022-12-02T16:40:59.592Z,7.70
2022-12-02T16:43:27.185Z,8.07
2022-12-02T16:45:54.197Z,6.80
2022-12-02T16:48:21.769Z,7.95
2022-12-02T16:50:52.661Z,7.63
2022-12-02T16:53:22.855Z,6.50
2022-12-02T16:55:50.170Z,7.07
2022-12-02T16:58:17.638Z,9.13
2022-12-02T17:00:44.575Z,8.63
2022-12-02T17:03:11.873Z,8.73
2022-12-02T17:05:39.233Z,7.95
2022-12-02T17:08:06.737Z,7.47
2022-12-02T17:10:34.231Z,6.38
2022-12-02T17:13:01.639Z,6.65
2022-12-02T17:15:29.024Z,6.60
2022-12-02T17:17:56.496Z,7.05
2022-12-02T17:20:23.993Z,7.03
2022-12-02T17:22:51.353Z,6.03
2022-12-02T17:25:18.840Z,7.68
2022-12-02T17:27:46.210Z,7.45
2022-12-02T17:30:14.107Z,6.95
2022-12-02T17:32:41.346Z,8.25
2022-12-02T17:35:09.142Z,7.50
2022-12-02T17:37:36.568Z,7.82
2022-12-02T17:40:04.007Z,7.70
2022-12-02T17:42:31.266Z,8.95
2022-12-02T17:44:58.818Z,7.93
2022-12-02T17:47:26.131Z,6.47
2022-12-02T17:49:53.629Z,7.90
2022-12-02T17:52:21.519Z,6.57
2022-12-02T17:54:49.008Z,6.97
2022-12-02T17:57:16.403Z,6.82
2022-12-02T17:59:43.959Z,5.40
2022-12-02T18:02:11.478Z,6.05
2022-12-02T18:04:43.920Z,6.78
2022-12-02T18:07:12.111Z,6.75
2022-12-02T18:09:41.765Z,6.93
2022-12-02T18:12:09.979Z,6.30
2022-12-02T18:14:37.548Z,5.53
2022-12-02T18:17:06.683Z,5.53
2022-12-02T18:19:34.342Z,3.83
2022-12-02T18:22:01.525Z,4.47
2022-12-02T18:24:28.832Z,4.03
2022-12-02T18:26:56.143Z,3.42
2022-12-02T18:29:23.472Z,3.85
2022-12-02T18:31:50.924Z,4.32
2022-12-02T18:34:18.327Z,4.03
2022-12-02T18:36:45.909Z,4.40
2022-12-02T18:39:13.297Z,4.15
2022-12-02T18:41:40.727Z,3.47
2022-12-02T18:44:07.644Z,3.45
2022-12-02T18:46:35.028Z,3.38
2022-12-02T18:49:02.907Z,3.90
2022-12-02T18:51:30.190Z,3.90
2022-12-02T18:53:57.550Z,3.30
2022-12-02T18:56:24.999Z,3.72
2022-12-02T18:58:54.037Z,3.78
2022-12-02T19:01:21.990Z,4.35
2022-12-02T19:03:49.909Z,3.88
2022-12-02T19:06:17.504Z,4.75
2022-12-02T19:08:44.807Z,4.20
2022-12-02T19:11:12.306Z,5.20
2022-12-02T19:13:40.027Z,4.90
2022-12-02T19:16:07.591Z,3.70
2022-12-02T19:18:35.047Z,4.55
2022-12-02T19:21:02.424Z,3.50
2022-12-02T19:23:29.919Z,4.07
2022-12-02T19:25:57.317Z,4.30
2022-12-02T19:28:26.978Z,3.78
2022-12-02T19:30:54.109Z,3.50
2022-12-02T19:33:21.639Z,4.22
2022-12-02T19:35:48.994Z,3.28
2022-12-02T19:38:16.308Z,3.50
2022-12-02T19:40:45.567Z,3.85
2022-12-02T19:43:16.625Z,4.03
2022-12-02T19:45:44.393Z,4.32
2022-12-02T19:48:12.269Z,4.80
2022-12-02T19:50:39.597Z,5.07
2022-12-02T19:53:06.932Z,4.82
2022-12-02T19:55:34.243Z,4.30
2022-12-02T19:58:01.625Z,4.93
2022-12-02T20:00:28.923Z,5.05
2022-12-02T20:02:56.415Z,6.18
2022-12-02T20:05:23.847Z,5.63
2022-12-02T20:07:51.560Z,6.18
2022-12-02T20:10:19.211Z,5.93
2022-12-02T20:12:46.963Z,7.00
2022-12-02T20:15:15.590Z,8.30
2022-12-02T20:17:43.414Z,6.93
2022-12-02T20:20:13.376Z,6.68
2022-12-02T20:22:41.235Z,7.35
2022-12-02T20:25:09.505Z,6.68
2022-12-02T20:27:36.877Z,7.50
2022-12-02T20:30:06.535Z,6.50
2022-12-02T20:32:37.036Z,6.78
2022-12-02T20:35:04.706Z,6.22
2022-12-02T20:37:32.191Z,4.90
2022-12-02T20:39:59.513Z,5.60
2022-12-02T20:42:26.851Z,5.55
2022-12-02T20:44:54.603Z,5.22
2022-12-02T20:47:22.461Z,6.38
2022-12-02T20:49:49.857Z,5.15
2022-12-02T20:52:17.459Z,5.20
2022-12-02T20:54:44.826Z,5.80
2022-12-02T20:57:13.287Z,5.88
2022-12-02T20:59:40.290Z,5.82
2022-12-02T21:02:09.318Z,6.05
2022-12-02T21:04:36.857Z,5.18
2022-12-02T21:07:09.177Z,5.55
2022-12-02T21:09:39.243Z,4.88
2022-12-02T21:12:07.126Z,5.72
2022-12-02T21:14:34.462Z,5.63
2022-12-02T21:17:01.878Z,5.97
2022-12-02T21:19:29.429Z,6.05
2022-12-02T21:21:56.728Z,6.85
2022-12-02T21:24:24.209Z,6.38
2022-12-02T21:26:51.657Z,6.05
2022-12-02T21:29:18.609Z,8.02
2022-12-02T21:31:46.085Z,7.55
2022-12-02T21:34:13.523Z,7.63
2022-12-02T21:36:43.540Z,9.25
2022-12-02T21:39:10.920Z,7.82
2022-12-02T21:41:38.253Z,8.45
2022-12-02T21:44:05.618Z,9.40
2022-12-02T21:46:33.066Z,8.60
2022-12-02T21:49:00.397Z,8.15
2022-12-02T21:51:27.772Z,8.30
2022-12-02T21:53:55.095Z,7.82
2022-12-02T21:56:24.201Z,8.80
2022-12-02T21:58:51.537Z,8.65
2022-12-02T22:01:37.660Z,7.53
2022-12-02T22:04:06.476Z,7.22
2022-12-02T22:06:33.961Z,7.25
2022-12-02T22:09:01.283Z,8.57
2022-12-02T22:11:28.624Z,9.20
2022-12-02T22:13:57.247Z,8.57
2022-12-02T22:16:24.815Z,8.48
2022-12-02T22:18:51.898Z,8.45
2022-12-02T22:21:19.629Z,8.27
2022-12-02T22:23:46.990Z,7.93
2022-12-02T22:26:19.961Z,8.30
2022-12-02T22:28:47.753Z,8.98
2022-12-02T22:31:15.195Z,8.23
2022-12-02T22:33:42.569Z,8.65
2022-12-02T22:36:09.897Z,8.60
2022-12-02T22:38:37.191Z,7.90
2022-12-02T22:41:04.501Z,8.07
2022-12-02T22:43:31.824Z,7.38
2022-12-02T22:45:59.135Z,7.65
2022-12-02T22:48:26.132Z,7.97
2022-12-02T22:50:53.482Z,8.95
2022-12-02T22:53:20.788Z,7.68
2022-12-02T22:55:48.092Z,8.98
2022-12-02T22:58:15.404Z,6.97
2022-12-02T23:00:42.878Z,7.35
2022-12-02T23:03:10.278Z,9.50
2022-12-02T23:05:37.552Z,7.65
2022-12-02T23:08:05.779Z,9.15
2022-12-02T23:10:34.139Z,7.40
2022-12-02T23:13:02.043Z,7.90
2022-12-02T23:15:38.420Z,8.07
2022-12-02T23:18:09.136Z,8.55
2022-12-02T23:20:36.830Z,7.50
2022-12-02T23:23:04.509Z,7.40
2022-12-02T23:25:32.159Z,7.50
2022-12-02T23:27:59.172Z,7.43
2022-12-02T23:30:29.227Z,7.35
2022-12-02T23:32:58.043Z,7.37
2022-12-02T23:35:26.132Z,8.33
2022-12-02T23:37:53.559Z,7.65
2022-12-02T23:40:21.158Z,6.73
2022-12-02T23:42:48.437Z,8.45
2022-12-02T23:45:15.876Z,7.10
2022-12-02T23:47:43.349Z,7.30
2022-12-02T23:50:11.019Z,7.47
2022-12-02T23:52:38.452Z,7.57
2022-12-02T23:55:06.202Z,7.20
2022-12-02T23:57:33.580Z,6.32
